Terminal Aerodrome Forecast
Issued by NWS Twin Cities, MN

Home | Current Version | Previous Version | Text Only | Print | Product List | Glossary On
Versions: 1 2 3 4 5 6 7 8 9 10 11 12 13 14 15 16 17 18 19 20 21 22 23 24 25 26 27 28 29 30 31
449
FTUS43 KMPX 260726 AAA
TAFMSP
TAF AMD
KMSP 260726Z 2607/2712 13007KT P6SM OVC100
     FM260730 16005KT 4SM -TSRA SCT020 BKN035CB
      TEMPO 2608/2609 26025G35KT 1SM TSRA BKN020CB
     FM260900 18004KT P6SM SCT020 BKN035
     FM261400 24008KT P6SM SCT250
     FM270300 16005KT P6SM BKN050 OVC200 PROB30 2703/2707 -TSRA
      BKN020CB=

USA.gov is the U.S. government's official web portal to all federal, state and local government web resources and services.